Time;durP1;ratioP1;P1;durP2;ratioP2;P2;SDS_P1;SDS_P2;PMS_P1;PMS_P2;Temp;Humidity;BMP_temperature;BMP_pressure;BME280_temperature;BME280_humidity;BME280_pressure;Samples;Min_cycle;Max_cycle;Signal;HPM_P1;HPM_P2
2023/06/03 00:02:01;;;;;;;7.23;3.10;;;;;;;17.82;nan;99306.94;5022604;28;20444;-79
2023/06/03 00:04:29;;;;;;;4.97;2.93;;;;;;;17.81;nan;99302.59;5021890;28;20442;-81
2023/06/03 00:06:56;;;;;;;6.67;4.30;;;;;;;17.78;nan;99302.84;5023190;28;20500;-84
2023/06/03 00:09:21;;;;;;;4.77;3.20;;;;;;;17.77;nan;99292.38;5024146;28;20618;-82
2023/06/03 00:11:46;;;;;;;6.13;3.63;;;;;;;17.75;nan;99291.72;5022221;28;20451;-82
2023/06/03 00:14:12;;;;;;;8.30;3.63;;;;;;;17.73;nan;99291.84;5022521;28;20256;-79
2023/06/03 00:16:37;;;;;;;10.10;3.73;;;;;;;17.69;nan;99293.97;5020328;28;20221;-80
2023/06/03 00:19:03;;;;;;;6.80;3.17;;;;;;;17.68;nan;99292.28;5022213;28;20666;-79
2023/06/03 00:21:28;;;;;;;8.20;3.20;;;;;;;17.67;nan;99295.13;5019870;28;20228;-79
2023/06/03 00:23:54;;;;;;;6.10;3.50;;;;;;;17.62;nan;99286.75;5021731;28;20298;-81
2023/06/03 00:26:22;;;;;;;5.80;4.00;;;;;;;17.56;nan;99298.81;5022644;28;20469;-80
2023/06/03 00:28:52;;;;;;;6.27;3.30;;;;;;;17.55;nan;99293.66;5021940;28;20226;-82
2023/06/03 00:31:17;;;;;;;4.77;3.40;;;;;;;17.53;nan;99292.97;5020794;28;20464;-80
2023/06/03 00:33:43;;;;;;;6.70;4.17;;;;;;;17.51;nan;99298.44;5025548;28;20624;-81
2023/06/03 00:36:08;;;;;;;7.10;3.80;;;;;;;17.48;nan;99298.72;5029072;28;20218;-80
2023/06/03 00:38:33;;;;;;;9.60;4.13;;;;;;;17.45;nan;99296.38;5026473;28;20219;-80
2023/06/03 00:40:59;;;;;;;4.90;3.10;;;;;;;17.41;nan;99301.13;5035457;28;20847;-81
2023/06/03 00:43:24;;;;;;;8.57;3.47;;;;;;;17.31;nan;99297.72;5026522;28;20329;-80
2023/06/03 00:45:50;;;;;;;6.57;4.13;;;;;;;17.22;nan;99302.06;5025409;28;20789;-79
2023/06/03 00:48:15;;;;;;;12.10;3.60;;;;;;;17.16;nan;99309.81;5024994;28;20221;-79
2023/06/03 00:50:41;;;;;;;5.23;3.90;;;;;;;17.12;nan;99311.06;5025739;28;20622;-80
2023/06/03 00:53:08;;;;;;;3.53;3.10;;;;;;;17.09;nan;99306.06;5026410;28;20213;-79
2023/06/03 00:55:34;;;;;;;5.10;3.40;;;;;;;17.07;nan;99308.03;5024855;28;20279;-83
2023/06/03 00:58:00;;;;;;;6.30;4.03;;;;;;;17.04;nan;99306.53;5024256;28;21100;-81
2023/06/03 01:00:26;;;;;;;4.00;2.83;;;;;;;17.01;nan;99305.00;5023621;28;20475;-80
2023/06/03 01:02:52;;;;;;;6.57;4.27;;;;;;;16.96;nan;99301.94;5024252;28;20252;-79
2023/06/03 01:05:18;;;;;;;5.30;4.30;;;;;;;16.95;nan;99302.06;5023002;28;20561;-79
2023/06/03 01:08:00;;;;;;;5.70;4.40;;;;;;;16.92;nan;99302.38;5026098;28;20323;-80
2023/06/03 01:10:36;;;;;;;3.60;3.30;;;;;;;16.89;nan;99305.31;5025415;28;20501;-81
2023/06/03 01:13:26;;;;;;;7.17;3.70;;;;;;;16.84;nan;99299.59;5024414;28;20546;-82
2023/06/03 01:15:54;;;;;;;4.80;3.13;;;;;;;16.81;nan;99298.06;5024926;28;20815;-80
2023/06/03 01:18:20;;;;;;;3.60;3.30;;;;;;;16.77;nan;99296.72;5025920;28;20469;-79
2023/06/03 01:20:48;;;;;;;5.50;4.03;;;;;;;16.74;nan;99296.94;5023388;28;20491;-81
2023/06/03 01:23:28;;;;;;;3.83;3.47;;;;;;;16.70;nan;99295.56;5023305;28;20465;-80
2023/06/03 01:25:57;;;;;;;8.13;3.83;;;;;;;16.64;nan;99294.34;5022557;28;21265;-82
2023/06/03 01:28:24;;;;;;;5.63;3.60;;;;;;;16.62;nan;99300.75;5025210;28;20588;-80
2023/06/03 01:30:51;;;;;;;3.73;3.33;;;;;;;16.57;nan;99301.19;5024717;28;21076;-82
2023/06/03 01:33:19;;;;;;;5.78;4.28;;;;;;;16.52;nan;99298.94;5022763;28;20939;-80
2023/06/03 01:35:48;;;;;;;5.35;4.10;;;;;;;16.50;nan;99295.63;5022197;28;20447;-82
2023/06/03 01:38:13;;;;;;;5.53;3.07;;;;;;;16.50;nan;99300.94;5023337;28;20907;-81
2023/06/03 01:40:39;;;;;;;4.93;3.40;;;;;;;16.46;nan;99299.53;5020351;28;20488;-83
2023/06/03 01:43:05;;;;;;;6.20;3.90;;;;;;;16.43;nan;99299.00;5022699;28;20504;-82
2023/06/03 01:45:31;;;;;;;4.70;3.63;;;;;;;16.35;nan;99297.88;5021060;28;20477;-79
2023/06/03 01:47:57;;;;;;;5.60;3.70;;;;;;;16.23;nan;99292.88;5020206;28;20502;-79
2023/06/03 01:50:23;;;;;;;6.40;4.10;;;;;;;16.23;nan;99295.50;5022471;28;20927;-80
2023/06/03 01:52:49;;;;;;;3.50;3.10;;;;;;;16.17;nan;99304.03;5023777;28;20218;-79
2023/06/03 01:55:16;;;;;;;5.90;3.50;;;;;;;16.07;nan;99298.75;5021607;28;20677;-82
2023/06/03 01:57:42;;;;;;;5.60;3.00;;;;;;;16.01;nan;99302.78;5020550;28;20928;-80
2023/06/03 02:00:11;;;;;;;3.67;3.37;;;;;;;15.97;nan;99304.06;5023741;28;20258;-80
2023/06/03 02:02:39;;;;;;;5.47;4.23;;;;;;;15.94;nan;99306.97;5022569;28;20200;-83
2023/06/03 02:05:05;;;;;;;6.35;3.72;;;;;;;15.94;nan;99296.38;5022713;28;20515;-80
2023/06/03 02:07:31;;;;;;;7.97;4.40;;;;;;;15.94;nan;99291.09;5018659;28;20214;-80
2023/06/03 02:10:00;;;;;;;5.70;3.10;;;;;;;15.94;nan;99293.75;5019328;28;20227;-81
2023/06/03 02:12:26;;;;;;;6.45;4.32;;;;;;;15.95;nan;99299.88;5019933;28;20213;-80
2023/06/03 02:14:56;;;;;;;7.10;4.53;;;;;;;15.89;nan;99290.66;5022275;28;20232;-81
2023/06/03 02:17:24;;;;;;;3.95;3.15;;;;;;;15.81;nan;99301.13;5022053;28;20212;-80
2023/06/03 02:19:50;;;;;;;4.15;3.63;;;;;;;15.73;nan;99296.50;5018062;28;20231;-79
2023/06/03 02:22:17;;;;;;;5.70;3.90;;;;;;;15.67;nan;99300.53;5019937;28;20225;-82
2023/06/03 02:24:43;;;;;;;7.13;4.88;;;;;;;15.60;nan;99296.72;5021080;28;20243;-80
2023/06/03 02:27:09;;;;;;;6.15;4.13;;;;;;;15.57;nan;99297.00;5021882;28;20476;-80
2023/06/03 02:29:35;;;;;;;7.18;4.72;;;;;;;15.57;nan;99312.91;5019685;28;21076;-81
2023/06/03 02:32:01;;;;;;;10.37;4.30;;;;;;;15.58;nan;99306.66;5024292;28;20314;-79
2023/06/03 02:34:26;;;;;;;6.63;3.40;;;;;;;15.59;nan;99305.66;5002113;28;20926;-79
2023/06/03 02:36:52;;;;;;;7.70;4.13;;;;;;;15.59;nan;99310.97;5020014;28;20470;-79
2023/06/03 02:39:18;;;;;;;6.63;4.30;;;;;;;15.60;nan;99309.16;5022369;28;20216;-82
2023/06/03 02:41:46;;;;;;;5.05;3.92;;;;;;;15.61;nan;99301.06;5021183;28;20323;-79
2023/06/03 02:44:13;;;;;;;8.82;4.35;;;;;;;15.64;nan;99302.63;5020095;28;20217;-79
2023/06/03 02:46:39;;;;;;;5.87;4.20;;;;;;;15.63;nan;99304.41;5021087;28;20225;-80
2023/06/03 02:49:06;;;;;;;6.77;4.10;;;;;;;15.59;nan;99305.66;5023764;28;20586;-81
2023/06/03 02:51:33;;;;;;;9.15;4.05;;;;;;;15.55;nan;99308.72;5019992;28;20468;-80
2023/06/03 02:53:58;;;;;;;9.63;5.67;;;;;;;15.49;nan;99310.94;5021448;28;20211;-79
2023/06/03 02:56:24;;;;;;;4.83;3.70;;;;;;;15.46;nan;99313.03;5021563;28;20544;-80
2023/06/03 02:58:50;;;;;;;5.93;3.75;;;;;;;15.43;nan;99306.19;5022551;28;20717;-83
2023/06/03 03:01:17;;;;;;;9.20;4.73;;;;;;;15.39;nan;99309.22;5022689;28;20241;-82
2023/06/03 03:03:42;;;;;;;6.45;4.55;;;;;;;15.30;nan;99316.19;5018341;28;20280;-80
2023/06/03 03:06:11;;;;;;;7.43;5.30;;;;;;;15.27;nan;99311.16;5017810;28;20679;-83
2023/06/03 03:08:37;;;;;;;5.50;4.75;;;;;;;15.20;nan;99308.22;5019144;28;20305;-81
2023/06/03 03:11:03;;;;;;;6.15;4.68;;;;;;;15.16;nan;99319.22;5020372;28;20280;-80
2023/06/03 03:13:30;;;;;;;5.20;4.27;;;;;;;15.11;nan;99313.47;5022697;28;20225;-80
2023/06/03 03:15:55;;;;;;;8.27;5.25;;;;;;;15.05;nan;99314.84;5021791;28;20219;-80
2023/06/03 03:18:22;;;;;;;6.50;4.13;;;;;;;15.03;nan;99314.13;5021707;28;20207;-79
2023/06/03 03:20:47;;;;;;;4.68;3.85;;;;;;;15.02;nan;99317.75;5031819;28;20221;-79
2023/06/03 03:23:15;;;;;;;4.93;3.55;;;;;;;14.99;nan;99318.03;5020200;28;20218;-81
2023/06/03 03:25:41;;;;;;;7.25;3.80;;;;;;;14.99;nan;99320.69;5032399;28;20217;-82
2023/06/03 03:28:07;;;;;;;6.90;4.20;;;;;;;14.99;nan;99328.63;5021442;28;20215;-79
2023/06/03 03:30:33;;;;;;;7.40;4.33;;;;;;;14.99;nan;99334.72;5032186;28;20238;-80
2023/06/03 03:32:59;;;;;;;8.10;5.15;;;;;;;14.95;nan;99329.84;5022688;28;20288;-79
2023/06/03 03:35:25;;;;;;;4.90;4.45;;;;;;;14.94;nan;99330.81;5021398;28;20209;-80
2023/06/03 03:38:02;;;;;;;7.95;5.35;;;;;;;14.88;nan;99334.81;5018463;28;20209;-79
2023/06/03 03:40:30;;;;;;;11.57;5.22;;;;;;;14.87;nan;99334.94;5020365;28;20237;-79
2023/06/03 03:42:57;;;;;;;5.35;4.22;;;;;;;14.91;nan;99334.56;5021790;28;20213;-79
2023/06/03 03:45:29;;;;;;;6.60;4.32;;;;;;;14.96;nan;99339.44;5022432;28;20239;-79
2023/06/03 03:48:01;;;;;;;7.60;4.95;;;;;;;14.98;nan;99337.50;5023552;28;20221;-79
2023/06/03 03:50:41;;;;;;;6.45;5.13;;;;;;;15.01;nan;99337.22;5026409;28;20224;-80
2023/06/03 03:53:09;;;;;;;7.80;6.00;;;;;;;15.05;nan;99339.50;5026521;28;20244;-79
2023/06/03 03:55:54;;;;;;;6.78;4.75;;;;;;;15.12;nan;99344.25;5028103;28;20204;-79
2023/06/03 03:58:26;;;;;;;7.25;4.28;;;;;;;15.16;nan;99338.56;5034733;28;20315;-79
2023/06/03 04:01:00;;;;;;;7.30;4.68;;;;;;;15.23;nan;99344.16;5025356;28;20263;-79
2023/06/03 04:03:30;;;;;;;7.40;4.65;;;;;;;15.25;nan;99350.97;5024977;28;20207;-79
2023/06/03 04:05:56;;;;;;;6.80;5.00;;;;;;;15.31;nan;99354.06;5029965;28;20691;-79
2023/06/03 04:08:39;;;;;;;8.10;5.10;;;;;;;15.36;nan;99342.09;5029378;28;20327;-79
2023/06/03 04:11:07;;;;;;;7.53;4.90;;;;;;;15.41;nan;99347.00;5028422;28;20281;-79
2023/06/03 04:13:38;;;;;;;5.30;4.40;;;;;;;15.44;nan;99341.44;5025921;28;20242;-80
2023/06/03 04:16:10;;;;;;;8.35;5.75;;;;;;;15.47;nan;99338.50;5025128;28;20895;-81
2023/06/03 04:18:42;;;;;;;9.23;4.90;;;;;;;15.52;nan;99338.09;5024873;28;20922;-80
2023/06/03 04:21:19;;;;;;;9.50;5.22;;;;;;;15.52;nan;99335.47;5024370;28;20225;-80
2023/06/03 04:23:45;;;;;;;8.45;4.40;;;;;;;15.54;nan;99342.28;5026482;28;20235;-80
2023/06/03 04:26:13;;;;;;;6.37;4.83;;;;;;;15.60;nan;99344.38;5026349;28;20324;-80
2023/06/03 04:28:39;;;;;;;6.13;4.00;;;;;;;15.67;nan;99340.22;5027464;28;20538;-81
2023/06/03 04:31:04;;;;;;;12.63;5.00;;;;;;;15.77;nan;99342.94;5029396;28;20302;-81
2023/06/03 04:33:30;;;;;;;6.40;4.77;;;;;;;15.84;nan;99356.47;5027906;28;20214;-78
2023/06/03 04:35:56;;;;;;;6.40;5.00;;;;;;;15.90;nan;99362.06;5026754;28;20612;-81
2023/06/03 04:38:21;;;;;;;6.30;4.20;;;;;;;15.91;nan;99353.13;5028463;28;20225;-82
2023/06/03 04:40:47;;;;;;;7.83;4.33;;;;;;;15.97;nan;99351.72;5028709;28;20580;-81
2023/06/03 04:43:15;;;;;;;7.95;4.40;;;;;;;16.02;nan;99359.28;5028612;28;20585;-81
2023/06/03 04:45:44;;;;;;;6.82;4.65;;;;;;;16.07;nan;99352.59;5028433;28;20263;-82
2023/06/03 04:48:12;;;;;;;7.85;4.72;;;;;;;16.26;nan;99353.56;5027406;28;20665;-81
2023/06/03 04:50:37;;;;;;;7.93;4.25;;;;;;;16.60;nan;99349.44;5027676;28;20521;-82
2023/06/03 04:53:06;;;;;;;6.80;4.90;;;;;;;17.08;nan;99347.69;5026780;28;20224;-81
2023/06/03 04:55:31;;;;;;;5.30;4.20;;;;;;;17.50;nan;99352.53;5025661;28;20453;-79
2023/06/03 04:58:00;;;;;;;8.53;5.50;;;;;;;17.93;nan;99351.03;5025409;28;20260;-79
2023/06/03 05:00:27;;;;;;;4.03;3.60;;;;;;;18.34;nan;99346.09;5026819;28;20455;-82
2023/06/03 05:02:59;;;;;;;5.70;3.83;;;;;;;18.76;nan;99329.44;5023015;28;21085;-81
2023/06/03 05:05:29;;;;;;;7.75;5.43;;;;;;;19.15;nan;99332.50;5018295;28;20451;-81
2023/06/03 05:07:55;;;;;;;5.30;4.50;;;;;;;19.47;nan;99336.28;5019901;28;20210;-81
2023/06/03 05:10:27;;;;;;;5.30;3.80;;;;;;;19.72;nan;99334.56;5021044;28;20553;-81
2023/06/03 05:12:53;;;;;;;7.50;4.20;;;;;;;19.95;nan;99337.41;5022395;28;20287;-81
2023/06/03 05:15:19;;;;;;;6.10;5.10;;;;;;;20.15;nan;99340.63;5018195;28;20446;-81
2023/06/03 05:17:45;;;;;;;5.03;4.60;;;;;;;20.43;nan;99337.63;5020084;28;20205;-81
2023/06/03 05:20:11;;;;;;;7.83;5.10;;;;;;;20.57;nan;99336.13;5024289;28;21134;-81
2023/06/03 05:22:37;;;;;;;7.30;4.70;;;;;;;20.74;nan;99330.63;5025909;28;20203;-81
2023/06/03 05:25:05;;;;;;;5.90;4.53;;;;;;;20.89;nan;99333.41;5024703;28;21054;-81
2023/06/03 05:27:30;;;;;;;7.13;6.13;;;;;;;21.08;nan;99331.34;5024734;28;20224;-81
2023/06/03 05:29:56;;;;;;;6.57;4.50;;;;;;;21.29;nan;99328.94;5024831;28;20432;-82
2023/06/03 05:32:22;;;;;;;6.37;4.00;;;;;;;21.51;nan;99323.88;5023206;28;20740;-82
2023/06/03 05:34:47;;;;;;;7.40;4.97;;;;;;;21.72;nan;99323.25;5022408;28;20438;-79
2023/06/03 05:37:13;;;;;;;7.80;4.53;;;;;;;21.88;nan;99328.50;5023461;28;20202;-79
2023/06/03 05:39:39;;;;;;;5.13;4.10;;;;;;;21.98;nan;99320.22;5022894;28;20454;-79
2023/06/03 05:42:07;;;;;;;5.63;4.53;;;;;;;22.15;nan;99320.97;5022959;28;20535;-82
2023/06/03 05:44:32;;;;;;;5.00;4.53;;;;;;;22.41;nan;99318.72;5036649;28;20434;-82
2023/06/03 05:46:58;;;;;;;5.03;4.53;;;;;;;22.73;nan;99322.94;5019640;28;20786;-82
2023/06/03 05:49:24;;;;;;;6.80;4.77;;;;;;;22.94;nan;99318.72;5022338;28;20448;-81
2023/06/03 05:51:50;;;;;;;4.77;4.30;;;;;;;23.03;nan;99323.00;5024959;28;20448;-81
2023/06/03 05:54:15;;;;;;;6.00;4.47;;;;;;;23.24;nan;99326.78;5023213;28;20421;-81
2023/06/03 05:56:41;;;;;;;5.77;4.37;;;;;;;23.50;nan;99328.97;5022095;28;20204;-81
2023/06/03 05:59:06;;;;;;;11.73;5.47;;;;;;;23.62;nan;99330.13;5022922;28;20209;-81
2023/06/03 06:01:37;;;;;;;9.57;5.33;;;;;;;23.70;nan;99321.16;5021672;28;20245;-81
2023/06/03 06:04:02;;;;;;;6.83;4.10;;;;;;;23.92;nan;99320.16;5021023;28;20437;-81
2023/06/03 06:06:28;;;;;;;6.37;4.93;;;;;;;24.15;nan;99321.84;5034627;28;20282;-82
2023/06/03 06:08:53;;;;;;;12.47;4.53;;;;;;;24.28;nan;99322.78;5024158;28;20389;-81
2023/06/03 06:11:20;;;;;;;5.60;4.77;;;;;;;24.43;nan;99325.38;5021626;28;20449;-81
2023/06/03 06:13:45;;;;;;;6.17;5.03;;;;;;;24.49;nan;99321.97;5021297;28;20203;-82
2023/06/03 06:16:11;;;;;;;9.20;4.83;;;;;;;24.68;nan;99315.09;5020026;28;20207;-85
2023/06/03 06:18:36;;;;;;;5.40;4.03;;;;;;;24.90;nan;99313.16;5017723;28;20556;-84
2023/06/03 06:21:03;;;;;;;4.23;3.83;;;;;;;25.07;nan;99318.22;5019240;28;20264;-84
2023/06/03 06:23:29;;;;;;;10.93;5.33;;;;;;;25.33;nan;99318.38;5020897;28;20485;-84
2023/06/03 06:25:55;;;;;;;5.67;4.80;;;;;;;25.53;nan;99323.00;5020492;28;20442;-85
2023/06/03 06:28:28;;;;;;;7.93;4.30;;;;;;;25.52;nan;99326.69;5020154;28;23820;-84
2023/06/03 06:31:04;;;;;;;6.53;5.83;;;;;;;25.48;nan;99337.03;5034101;28;20462;-84
2023/06/03 06:33:33;;;;;;;7.10;4.20;;;;;;;25.42;nan;99332.47;5023639;28;20736;-84
2023/06/03 06:36:13;;;;;;;6.47;4.73;;;;;;;25.47;nan;99324.63;5025486;28;20512;-84
2023/06/03 06:38:39;;;;;;;7.93;4.17;;;;;;;25.61;nan;99326.31;5024378;28;20435;-84
2023/06/03 06:41:04;;;;;;;4.67;4.27;;;;;;;25.96;nan;99333.50;5018339;28;20453;-84
2023/06/03 06:43:35;;;;;;;4.43;3.83;;;;;;;26.16;nan;99328.13;5020336;28;20285;-84
2023/06/03 06:46:01;;;;;;;9.67;5.30;;;;;;;26.26;nan;99332.06;5018781;28;20448;-84
2023/06/03 06:48:28;;;;;;;7.57;3.90;;;;;;;26.37;nan;99335.19;5026686;28;20869;-84
2023/06/03 06:51:00;;;;;;;5.37;4.03;;;;;;;26.49;nan;99337.06;5023745;28;20461;-84
2023/06/03 06:53:33;;;;;;;4.93;4.40;;;;;;;26.69;nan;99338.94;5022646;28;20466;-85
2023/06/03 06:56:11;;;;;;;6.07;4.10;;;;;;;26.90;nan;99341.41;5026784;28;20463;-80
2023/06/03 06:58:48;;;;;;;9.63;5.00;;;;;;;26.95;nan;99338.09;5028256;28;20540;-80
2023/06/03 07:01:14;;;;;;;5.37;4.43;;;;;;;27.02;nan;99333.50;5028938;28;20559;-80
2023/06/03 07:03:43;;;;;;;7.77;5.10;;;;;;;26.98;nan;99329.56;5027604;28;20427;-80
2023/06/03 07:06:10;;;;;;;5.20;4.53;;;;;;;26.90;nan;99327.94;5025467;28;20880;-80
2023/06/03 07:08:36;;;;;;;7.40;4.30;;;;;;;26.55;nan;99338.13;5028030;28;20833;-80
2023/06/03 07:11:04;;;;;;;8.03;5.10;;;;;;;26.58;nan;99328.81;5030270;28;20473;-81
2023/06/03 07:13:34;;;;;;;5.63;4.50;;;;;;;26.67;nan;99335.63;5039368;28;20493;-80
2023/06/03 07:16:00;;;;;;;7.47;5.03;;;;;;;26.82;nan;99338.09;5044653;28;20454;-81
2023/06/03 07:18:27;;;;;;;8.67;4.87;;;;;;;27.05;nan;99338.47;5026957;28;20460;-81
2023/06/03 07:20:53;;;;;;;5.57;4.57;;;;;;;27.21;nan;99345.28;5029167;28;20446;-79
2023/06/03 07:23:24;;;;;;;5.23;4.70;;;;;;;27.29;nan;99336.97;5027286;28;21066;-79
2023/06/03 07:25:51;;;;;;;6.23;4.30;;;;;;;27.31;nan;99339.47;5027357;28;20221;-80
2023/06/03 07:28:28;;;;;;;7.73;4.80;;;;;;;27.39;nan;99350.00;5026906;28;20462;-81
2023/06/03 07:30:53;;;;;;;9.07;4.77;;;;;;;27.51;nan;99342.06;5028588;28;20469;-81
2023/06/03 07:33:30;;;;;;;8.10;4.87;;;;;;;27.54;nan;99347.88;5029449;28;20550;-81
2023/06/03 07:35:58;;;;;;;8.60;4.90;;;;;;;27.75;nan;99341.31;5026750;28;20973;-81
2023/06/03 07:38:55;;;;;;;5.77;4.00;;;;;;;27.94;nan;99342.28;5027547;28;20226;-80
2023/06/03 07:41:45;;;;;;;4.70;3.83;;;;;;;28.10;nan;99342.81;5026172;28;20616;-80
2023/06/03 07:44:42;;;;;;;10.03;5.83;;;;;;;28.20;nan;99344.00;5027964;28;20639;-80
2023/06/03 07:47:08;;;;;;;7.20;5.00;;;;;;;28.27;nan;99343.09;5026320;28;21023;-80
2023/06/03 07:49:33;;;;;;;10.53;4.90;;;;;;;28.41;nan;99341.97;5031534;28;20518;-81
2023/06/03 07:51:59;;;;;;;7.77;4.70;;;;;;;28.48;nan;99342.75;5026622;28;20451;-80
2023/06/03 07:54:27;;;;;;;7.37;5.13;;;;;;;28.36;nan;99349.91;5026363;28;20217;-80
2023/06/03 07:56:55;;;;;;;6.10;4.30;;;;;;;28.22;nan;99341.09;5025121;28;20224;-80
2023/06/03 07:59:21;;;;;;;5.40;4.30;;;;;;;28.12;nan;99341.56;5029540;28;20882;-81
2023/06/03 08:01:50;;;;;;;8.17;5.60;;;;;;;28.09;nan;99351.97;5028244;28;20472;-81
2023/06/03 08:04:35;;;;;;;6.20;4.33;;;;;;;28.02;nan;99344.72;5027914;28;20956;-81
2023/06/03 08:07:02;;;;;;;8.90;4.43;;;;;;;27.97;nan;99344.53;5025693;28;20846;-81
2023/06/03 08:09:28;;;;;;;9.87;5.50;;;;;;;27.97;nan;99346.44;5028785;28;20477;-81
2023/06/03 08:11:55;;;;;;;5.23;3.83;;;;;;;27.88;nan;99348.56;5027874;28;20761;-81
2023/06/03 08:14:23;;;;;;;8.30;5.27;;;;;;;27.77;nan;99341.13;5029038;28;20820;-81
2023/06/03 08:16:49;;;;;;;6.03;4.60;;;;;;;27.64;nan;99343.88;5028496;28;20881;-81
2023/06/03 08:19:16;;;;;;;8.20;5.17;;;;;;;27.58;nan;99343.69;5030915;28;20483;-81
2023/06/03 08:21:44;;;;;;;7.47;4.30;;;;;;;27.48;nan;99345.19;5034809;28;20471;-80
2023/06/03 08:24:10;;;;;;;6.90;4.80;;;;;;;27.38;nan;99348.34;5031529;28;21032;-80
2023/06/03 08:26:38;;;;;;;8.10;5.40;;;;;;;27.14;nan;99349.88;5029248;28;20494;-80
2023/06/03 08:29:04;;;;;;;8.00;4.90;;;;;;;26.92;nan;99352.81;5027007;28;20210;-80
2023/06/03 08:31:32;;;;;;;6.03;4.20;;;;;;;26.72;nan;99349.31;5029101;28;20495;-80
2023/06/03 08:33:58;;;;;;;7.77;4.27;;;;;;;26.63;nan;99355.94;5031030;28;20226;-80
2023/06/03 08:36:24;;;;;;;8.88;5.10;;;;;;;26.61;nan;99352.63;5029442;28;20500;-80
2023/06/03 08:38:49;;;;;;;6.47;4.87;;;;;;;26.62;nan;99355.09;5026293;28;20232;-81
2023/06/03 08:41:15;;;;;;;5.97;4.70;;;;;;;26.53;nan;99350.97;5027684;28;20246;-80
2023/06/03 08:43:53;;;;;;;11.57;5.87;;;;;;;26.44;nan;99358.41;5024685;28;20223;-80
2023/06/03 08:46:23;;;;;;;6.07;5.43;;;;;;;26.45;nan;99343.06;5027534;28;20478;-80
2023/06/03 08:49:04;;;;;;;7.20;5.07;;;;;;;26.52;nan;99354.72;5035988;28;20507;-80
2023/06/03 08:51:36;;;;;;;11.13;5.67;;;;;;;26.64;nan;99352.22;5028517;28;20481;-81
2023/06/03 08:54:08;;;;;;;6.30;5.70;;;;;;;26.77;nan;99349.50;5028926;28;20480;-81
2023/06/03 08:56:42;;;;;;;10.07;8.37;;;;;;;26.85;nan;99349.28;5033996;28;20455;-81
2023/06/03 08:59:12;;;;;;;4.77;4.33;;;;;;;26.87;nan;99344.53;5033616;28;20487;-81
2023/06/03 09:01:41;;;;;;;7.63;5.23;;;;;;;26.96;nan;99349.69;5033409;28;20531;-80
2023/06/03 09:04:11;;;;;;;9.23;5.20;;;;;;;27.00;nan;99346.34;5032753;28;20478;-80
2023/06/03 09:06:45;;;;;;;5.10;4.60;;;;;;;26.90;nan;99348.66;5030071;28;20476;-80
2023/06/03 09:09:12;;;;;;;6.83;5.47;;;;;;;26.96;nan;99352.38;5035493;28;20512;-80
2023/06/03 09:11:39;;;;;;;5.17;4.20;;;;;;;27.03;nan;99340.56;5033291;28;20821;-80
2023/06/03 09:14:05;;;;;;;6.43;4.40;;;;;;;26.94;nan;99341.81;5033914;28;20981;-80
2023/06/03 09:16:32;;;;;;;6.43;5.30;;;;;;;26.85;nan;99340.38;5031454;28;20891;-80
2023/06/03 09:18:58;;;;;;;11.73;6.40;;;;;;;26.76;nan;99339.78;5029997;28;20487;-80
2023/06/03 09:21:25;;;;;;;7.80;5.07;;;;;;;26.65;nan;99346.63;5035549;28;20481;-80
2023/06/03 09:23:53;;;;;;;6.13;4.60;;;;;;;26.62;nan;99340.81;5033434;28;20521;-80
2023/06/03 09:26:18;;;;;;;9.40;5.43;;;;;;;26.79;nan;99346.59;5030021;28;21408;-80
2023/06/03 09:28:45;;;;;;;5.90;5.23;;;;;;;26.77;nan;99344.13;5031372;28;20481;-80
2023/06/03 09:31:11;;;;;;;7.40;5.17;;;;;;;26.65;nan;99337.69;5028901;28;20604;-80
2023/06/03 09:33:37;;;;;;;7.97;5.70;;;;;;;26.63;nan;99337.09;5033301;28;20462;-81
2023/06/03 09:36:12;;;;;;;8.02;5.32;;;;;;;26.71;nan;99339.56;5032930;28;20459;-80
2023/06/03 09:38:51;;;;;;;8.33;5.40;;;;;;;26.80;nan;99335.59;5032856;28;20770;-80
2023/06/03 09:41:25;;;;;;;7.87;4.83;;;;;;;26.73;nan;99334.78;5033176;28;20861;-82
2023/06/03 09:43:56;;;;;;;6.00;4.87;;;;;;;26.76;nan;99338.94;5032115;28;20447;-82
2023/06/03 09:46:22;;;;;;;9.23;4.77;;;;;;;26.85;nan;99337.69;5034880;28;20477;-79
2023/06/03 09:48:48;;;;;;;8.27;5.33;;;;;;;26.96;nan;99330.81;5032487;28;20986;-82
2023/06/03 09:51:13;;;;;;;7.93;5.10;;;;;;;27.03;nan;99334.31;5032245;28;20512;-83
2023/06/03 09:53:39;;;;;;;6.53;4.87;;;;;;;27.10;nan;99335.97;5035036;28;20258;-80
2023/06/03 09:56:26;;;;;;;7.83;4.83;;;;;;;27.08;nan;99331.81;5033369;28;20822;-80
2023/06/03 09:59:13;;;;;;;8.40;6.83;;;;;;;27.09;nan;99328.09;5026266;28;20999;-79
2023/06/03 10:01:39;;;;;;;6.03;4.70;;;;;;;26.93;nan;99324.81;5029067;28;20988;-82
2023/06/03 10:04:04;;;;;;;8.30;5.10;;;;;;;26.98;nan;99332.28;5027665;28;20485;-83
2023/06/03 10:06:30;;;;;;;6.70;5.20;;;;;;;27.00;nan;99332.03;5025956;28;20477;-84
2023/06/03 10:08:56;;;;;;;7.40;5.70;;;;;;;27.04;nan;99325.19;5026480;28;20320;-81
2023/06/03 10:11:23;;;;;;;6.30;5.50;;;;;;;27.03;nan;99328.91;5028853;28;20503;-81
2023/06/03 10:14:02;;;;;;;5.37;4.87;;;;;;;27.17;nan;99322.50;5027526;28;20521;-80
2023/06/03 10:16:28;;;;;;;8.83;5.23;;;;;;;27.33;nan;99318.50;5026382;28;20473;-79
2023/06/03 10:18:54;;;;;;;9.03;4.97;;;;;;;27.51;nan;99315.09;5029341;28;20479;-84
2023/06/03 10:21:21;;;;;;;6.47;4.70;;;;;;;27.70;nan;99310.63;5022684;28;20263;-80
2023/06/03 10:23:48;;;;;;;5.00;4.50;;;;;;;27.78;nan;99310.38;5028474;28;21061;-80
2023/06/03 10:26:17;;;;;;;6.50;4.93;;;;;;;27.70;nan;99305.25;5028619;28;20557;-80
2023/06/03 10:28:45;;;;;;;8.33;5.57;;;;;;;27.78;nan;99307.69;5030262;28;20475;-79
2023/06/03 10:31:12;;;;;;;9.67;4.70;;;;;;;27.87;nan;99308.28;5034088;28;20489;-79
2023/06/03 10:33:40;;;;;;;10.20;5.73;;;;;;;27.80;nan;99308.34;5037978;28;20523;-79
2023/06/03 10:36:06;;;;;;;5.70;5.20;;;;;;;27.88;nan;99294.56;5037097;28;20460;-79
2023/06/03 10:38:32;;;;;;;7.30;5.20;;;;;;;27.97;nan;99300.53;5038531;28;20472;-79
2023/06/03 10:40:59;;;;;;;8.00;5.77;;;;;;;27.98;nan;99299.50;5038494;28;20526;-79
2023/06/03 10:43:26;;;;;;;9.80;5.90;;;;;;;27.97;nan;99292.44;5033277;28;20476;-80
2023/06/03 10:45:53;;;;;;;7.00;5.23;;;;;;;27.94;nan;99292.88;5036290;28;20884;-80
2023/06/03 10:48:22;;;;;;;6.07;4.40;;;;;;;27.93;nan;99292.06;5034253;28;20504;-79
2023/06/03 10:50:48;;;;;;;10.83;4.90;;;;;;;28.00;nan;99290.16;5039227;28;20452;-79
2023/06/03 10:54:02;;;;;;;6.33;5.53;;;;;;;27.99;nan;99284.94;5039400;28;20518;-79
2023/06/03 10:56:46;;;;;;;12.00;6.13;;;;;;;27.93;nan;99297.44;5032801;28;20274;-80
2023/06/03 10:59:17;;;;;;;5.37;4.87;;;;;;;27.83;nan;99275.50;5033407;28;20846;-80
2023/06/03 11:02:02;;;;;;;7.97;7.20;;;;;;;27.87;nan;99287.53;5033083;28;20470;-80
2023/06/03 11:04:35;;;;;;;6.17;5.10;;;;;;;27.91;nan;99291.44;5033717;28;20544;-80
2023/06/03 11:07:02;;;;;;;7.70;4.83;;;;;;;27.90;nan;99284.41;5035259;28;20478;-79
2023/06/03 11:09:38;;;;;;;5.67;4.07;;;;;;;27.86;nan;99276.94;5033764;28;20525;-80
2023/06/03 11:12:13;;;;;;;8.90;5.20;;;;;;;27.82;nan;99284.66;5032910;28;20467;-79
2023/06/03 11:14:42;;;;;;;8.57;5.07;;;;;;;27.75;nan;99281.13;5032087;28;20466;-80
2023/06/03 11:17:20;;;;;;;7.80;4.83;;;;;;;27.81;nan;99277.59;5028493;28;20479;-79
2023/06/03 11:19:49;;;;;;;8.83;5.67;;;;;;;27.89;nan;99277.31;5025667;28;20573;-80
2023/06/03 11:22:26;;;;;;;8.10;5.00;;;;;;;27.90;nan;99276.28;5027725;28;20541;-79
2023/06/03 11:24:52;;;;;;;5.80;4.90;;;;;;;27.92;nan;99278.75;5023311;28;20547;-80
2023/06/03 11:27:18;;;;;;;8.37;5.07;;;;;;;27.94;nan;99274.78;5027425;28;20583;-80
2023/06/03 11:29:46;;;;;;;7.67;5.80;;;;;;;27.91;nan;99277.94;5029930;28;20919;-81
2023/06/03 11:32:12;;;;;;;6.30;4.77;;;;;;;27.92;nan;99273.38;5027847;28;20482;-80
2023/06/03 11:34:38;;;;;;;5.77;4.73;;;;;;;27.87;nan;99276.75;5027355;28;20464;-79
2023/06/03 11:37:03;;;;;;;5.40;4.90;;;;;;;27.77;nan;99276.34;5030409;28;20527;-78
2023/06/03 11:40:01;;;;;;;5.50;4.10;;;;;;;27.77;nan;99273.66;5026684;28;20306;-80
2023/06/03 11:42:27;;;;;;;6.30;4.60;;;;;;;27.80;nan;99273.25;5028511;28;20759;-80
2023/06/03 11:44:52;;;;;;;8.30;5.77;;;;;;;27.84;nan;99262.84;5025698;28;20889;-80
2023/06/03 11:47:18;;;;;;;7.97;5.50;;;;;;;27.88;nan;99261.38;5024080;28;20486;-80
2023/06/03 11:49:43;;;;;;;5.30;4.47;;;;;;;27.96;nan;99264.63;5028249;28;20736;-80
2023/06/03 11:52:10;;;;;;;8.43;5.20;;;;;;;28.00;nan;99259.59;5025890;28;20216;-77
2023/06/03 11:54:37;;;;;;;7.60;5.87;;;;;;;27.90;nan;99252.00;5027727;28;20268;-80
2023/06/03 11:57:04;;;;;;;6.00;4.73;;;;;;;27.75;nan;99257.66;5026943;28;20608;-80